Time;durP1;ratioP1;P1;durP2;ratioP2;P2;SDS_P1;SDS_P2;PMS_P1;PMS_P2;Temp;Humidity;BMP_temperature;BMP_pressure;BME280_temperature;BME280_humidity;BME280_pressure;Samples;Min_cycle;Max_cycle;Signal;HPM_P1;HPM_P2
2023/03/15 00:00:41;;;;;;;5.32;1.52;;;;;;;;;;5032166;28;20037;-61
2023/03/15 00:03:07;;;;;;;3.72;1.50;;;;;;;;;;5031397;28;20098;-61
2023/03/15 00:05:33;;;;;;;4.50;1.40;;;;;;;;;;5031461;28;20082;-59
2023/03/15 00:08:00;;;;;;;4.70;1.60;;;;;;;;;;5031660;28;20033;-58
2023/03/15 00:10:26;;;;;;;3.90;1.33;;;;;;;;;;5031170;28;20435;-58
2023/03/15 00:12:52;;;;;;;3.80;1.58;;;;;;;;;;5031080;28;20022;-61
2023/03/15 00:15:18;;;;;;;4.15;1.77;;;;;;;;;;5031158;28;20121;-61
2023/03/15 00:17:44;;;;;;;3.38;1.10;;;;;;;;;;5031494;28;20033;-59
2023/03/15 00:20:11;;;;;;;4.20;1.30;;;;;;;;;;5031690;28;20106;-61
2023/03/15 00:22:38;;;;;;;4.57;1.38;;;;;;;;;;5031113;28;20033;-62
2023/03/15 00:25:04;;;;;;;3.67;1.58;;;;;;;;;;5031311;28;20133;-61
2023/03/15 00:27:30;;;;;;;2.72;1.35;;;;;;;;;;5030595;28;20497;-61
2023/03/15 00:29:56;;;;;;;3.67;1.60;;;;;;;;;;5031267;28;20068;-62
2023/03/15 00:32:22;;;;;;;3.00;1.38;;;;;;;;;;5030943;28;20541;-62
2023/03/15 00:34:48;;;;;;;3.67;1.30;;;;;;;;;;5030942;28;20120;-61
2023/03/15 00:37:15;;;;;;;3.75;1.40;;;;;;;;;;5031196;28;20021;-58
2023/03/15 00:39:44;;;;;;;4.28;1.38;;;;;;;;;;5031330;28;20029;-58
2023/03/15 00:42:10;;;;;;;4.25;1.40;;;;;;;;;;5031367;28;20075;-58
2023/03/15 00:44:36;;;;;;;3.05;1.13;;;;;;;;;;5030662;28;20046;-61
2023/03/15 00:47:02;;;;;;;4.15;1.23;;;;;;;;;;5031127;28;20021;-61
2023/03/15 00:49:28;;;;;;;2.78;1.05;;;;;;;;;;5030604;28;20430;-59
2023/03/15 00:51:55;;;;;;;2.72;1.20;;;;;;;;;;5031012;28;20056;-59
2023/03/15 00:54:22;;;;;;;3.40;1.20;;;;;;;;;;5030546;28;20103;-59
2023/03/15 00:56:48;;;;;;;5.70;1.20;;;;;;;;;;5030995;28;20029;-57
2023/03/15 00:59:14;;;;;;;2.15;1.13;;;;;;;;;;5030740;28;20393;-57
2023/03/15 01:01:43;;;;;;;2.28;0.93;;;;;;;;;;5031287;28;20017;-57
2023/03/15 01:04:10;;;;;;;4.22;1.38;;;;;;;;;;5030983;28;20037;-61
2023/03/15 01:06:37;;;;;;;2.72;1.30;;;;;;;;;;5030496;28;20497;-60
2023/03/15 01:09:03;;;;;;;5.70;1.40;;;;;;;;;;5030688;28;20037;-58
2023/03/15 01:11:29;;;;;;;3.72;1.67;;;;;;;;;;5030337;28;20397;-58
2023/03/15 01:13:56;;;;;;;3.22;1.25;;;;;;;;;;5030770;28;20045;-58
2023/03/15 01:16:23;;;;;;;2.75;1.20;;;;;;;;;;5034663;28;20026;-57
2023/03/15 01:18:50;;;;;;;2.15;1.20;;;;;;;;;;5034793;28;20029;-61
2023/03/15 01:21:16;;;;;;;2.40;1.25;;;;;;;;;;5034239;28;20080;-61
2023/03/15 01:23:42;;;;;;;4.25;1.20;;;;;;;;;;5035310;28;20088;-59
2023/03/15 01:26:11;;;;;;;2.95;1.50;;;;;;;;;;5034674;28;20362;-60
2023/03/15 01:28:37;;;;;;;5.68;1.35;;;;;;;;;;5034496;28;20034;-58
2023/03/15 01:31:03;;;;;;;3.90;0.93;;;;;;;;;;5034611;28;20026;-59
2023/03/15 01:33:29;;;;;;;4.60;1.50;;;;;;;;;;5034228;28;20434;-57
2023/03/15 01:36:03;;;;;;;3.63;1.17;;;;;;;;;;5034408;28;20045;-56
2023/03/15 01:38:29;;;;;;;2.33;1.10;;;;;;;;;;5034204;28;20021;-60
2023/03/15 01:40:55;;;;;;;3.75;1.35;;;;;;;;;;5034009;28;20060;-61
2023/03/15 01:43:22;;;;;;;3.78;1.30;;;;;;;;;;5034184;28;20029;-60
2023/03/15 01:46:07;;;;;;;2.65;1.00;;;;;;;;;;5033835;28;20490;-60
2023/03/15 01:48:36;;;;;;;3.38;1.15;;;;;;;;;;5033997;28;20104;-60
2023/03/15 01:51:04;;;;;;;6.60;1.67;;;;;;;;;;5034032;28;20466;-60
2023/03/15 01:53:32;;;;;;;6.63;1.38;;;;;;;;;;5033880;28;20029;-57
2023/03/15 01:55:59;;;;;;;1.85;0.90;;;;;;;;;;5034125;28;20045;-53
2023/03/15 01:58:26;;;;;;;2.95;0.98;;;;;;;;;;5033892;28;20025;-61
2023/03/15 02:00:52;;;;;;;4.10;1.60;;;;;;;;;;5033072;28;20052;-61
2023/03/15 02:03:21;;;;;;;4.28;1.50;;;;;;;;;;5033798;28;20029;-60
2023/03/15 02:05:48;;;;;;;3.40;1.10;;;;;;;;;;5033982;28;20105;-61
2023/03/15 02:08:16;;;;;;;2.70;1.15;;;;;;;;;;5033750;28;20049;-58
2023/03/15 02:10:43;;;;;;;2.75;1.33;;;;;;;;;;5033924;28;20029;-59
2023/03/15 02:13:10;;;;;;;3.20;1.20;;;;;;;;;;5034094;28;20040;-58
2023/03/15 02:15:36;;;;;;;2.22;0.90;;;;;;;;;;5033535;28;20033;-60
2023/03/15 02:18:02;;;;;;;3.00;1.30;;;;;;;;;;5033704;28;20032;-60
2023/03/15 02:20:28;;;;;;;3.55;1.33;;;;;;;;;;5033434;28;20021;-59
2023/03/15 02:22:56;;;;;;;3.10;0.90;;;;;;;;;;5033585;28;20072;-61
2023/03/15 02:25:28;;;;;;;4.78;1.25;;;;;;;;;;5033099;28;20029;-61
2023/03/15 02:27:55;;;;;;;2.10;0.88;;;;;;;;;;5033781;28;20456;-59
2023/03/15 02:30:21;;;;;;;2.33;1.00;;;;;;;;;;5033219;28;20025;-58
2023/03/15 02:32:48;;;;;;;2.75;0.80;;;;;;;;;;5033450;28;20034;-56
2023/03/15 02:35:21;;;;;;;2.30;1.20;;;;;;;;;;5033589;28;20072;-58
2023/03/15 02:37:47;;;;;;;3.80;1.20;;;;;;;;;;5033427;28;20029;-56
2023/03/15 02:40:18;;;;;;;2.75;0.90;;;;;;;;;;5033218;28;20040;-59
2023/03/15 02:42:44;;;;;;;2.40;1.25;;;;;;;;;;5033647;28;20491;-58
2023/03/15 02:45:11;;;;;;;2.25;1.05;;;;;;;;;;5033335;28;20025;-58
2023/03/15 02:47:37;;;;;;;3.20;1.00;;;;;;;;;;5032539;28;20104;-58
2023/03/15 02:50:04;;;;;;;3.22;1.10;;;;;;;;;;5033193;28;20029;-56
2023/03/15 02:52:30;;;;;;;2.95;0.90;;;;;;;;;;5032745;28;20461;-60
2023/03/15 02:54:56;;;;;;;2.17;0.70;;;;;;;;;;5033034;28;20041;-58
2023/03/15 02:57:22;;;;;;;1.85;0.80;;;;;;;;;;5032793;28;20396;-58
2023/03/15 02:59:51;;;;;;;2.30;1.02;;;;;;;;;;5033070;28;20025;-59
2023/03/15 03:02:17;;;;;;;2.17;1.00;;;;;;;;;;5032310;28;20036;-58
2023/03/15 03:04:44;;;;;;;3.42;1.15;;;;;;;;;;5033279;28;20025;-59
2023/03/15 03:07:10;;;;;;;2.13;0.90;;;;;;;;;;5033067;28;20442;-60
2023/03/15 03:09:36;;;;;;;3.22;0.90;;;;;;;;;;5032442;28;20072;-59
2023/03/15 03:12:02;;;;;;;2.85;0.85;;;;;;;;;;5032329;28;20137;-58
2023/03/15 03:14:28;;;;;;;2.38;1.00;;;;;;;;;;5032404;28;20408;-57
2023/03/15 03:16:54;;;;;;;4.57;1.27;;;;;;;;;;5032670;28;20030;-58
2023/03/15 03:19:24;;;;;;;2.53;0.90;;;;;;;;;;5032351;28;20112;-58
2023/03/15 03:21:51;;;;;;;2.05;0.88;;;;;;;;;;5032455;28;20029;-56
2023/03/15 03:24:17;;;;;;;3.05;1.10;;;;;;;;;;5032104;28;20087;-61
2023/03/15 03:26:44;;;;;;;3.05;1.13;;;;;;;;;;5031127;28;20029;-60
2023/03/15 03:29:10;;;;;;;3.17;0.98;;;;;;;;;;5032773;28;20029;-61
2023/03/15 03:31:36;;;;;;;1.90;1.00;;;;;;;;;;5031726;28;20032;-61
2023/03/15 03:34:02;;;;;;;3.65;1.05;;;;;;;;;;5032209;28;20018;-57
2023/03/15 03:36:28;;;;;;;3.00;1.08;;;;;;;;;;5031921;28;20028;-59
2023/03/15 03:38:55;;;;;;;4.20;1.08;;;;;;;;;;5031258;28;20442;-58
2023/03/15 03:41:21;;;;;;;2.83;0.90;;;;;;;;;;5031848;28;20033;-60
2023/03/15 03:43:47;;;;;;;2.90;1.00;;;;;;;;;;5032259;28;20025;-61
2023/03/15 03:46:13;;;;;;;3.40;0.80;;;;;;;;;;5032460;28;20025;-61
2023/03/15 03:48:39;;;;;;;2.25;1.10;;;;;;;;;;5032309;28;20105;-62
2023/03/15 03:51:05;;;;;;;2.15;1.08;;;;;;;;;;5032016;28;20108;-61
2023/03/15 03:53:31;;;;;;;2.20;0.73;;;;;;;;;;5031228;28;20033;-58
2023/03/15 03:55:57;;;;;;;2.45;0.90;;;;;;;;;;5032018;28;20099;-60
2023/03/15 03:58:23;;;;;;;3.17;0.88;;;;;;;;;;5031666;28;20028;-61
2023/03/15 04:00:54;;;;;;;2.45;0.90;;;;;;;;;;5031832;28;20030;-60
2023/03/15 04:03:26;;;;;;;3.55;1.15;;;;;;;;;;5031434;28;20029;-61
2023/03/15 04:05:52;;;;;;;1.98;0.82;;;;;;;;;;5031554;28;20040;-62
2023/03/15 04:08:18;;;;;;;3.00;1.08;;;;;;;;;;5031054;28;20031;-60
2023/03/15 04:10:44;;;;;;;3.30;1.23;;;;;;;;;;5031653;28;20108;-60
2023/03/15 04:13:10;;;;;;;4.10;1.17;;;;;;;;;;5031467;28;20581;-59
2023/03/15 04:15:36;;;;;;;3.47;0.80;;;;;;;;;;5031348;28;20132;-61
2023/03/15 04:18:04;;;;;;;2.88;0.88;;;;;;;;;;5031516;28;20022;-60
2023/03/15 04:20:33;;;;;;;3.15;0.98;;;;;;;;;;5031083;28;20100;-60
2023/03/15 04:23:00;;;;;;;4.38;1.23;;;;;;;;;;5031486;28;20025;-61
2023/03/15 04:25:33;;;;;;;3.15;1.42;;;;;;;;;;5031307;28;20029;-59
2023/03/15 04:28:01;;;;;;;3.70;1.10;;;;;;;;;;5031032;28;20033;-59
2023/03/15 04:30:27;;;;;;;3.88;1.40;;;;;;;;;;5031135;28;20029;-57
2023/03/15 04:32:57;;;;;;;3.15;1.00;;;;;;;;;;5031195;28;20103;-59
2023/03/15 04:35:26;;;;;;;1.75;0.95;;;;;;;;;;5030855;28;20095;-61
2023/03/15 04:37:52;;;;;;;3.20;1.00;;;;;;;;;;5031212;28;20072;-57
2023/03/15 04:40:19;;;;;;;2.53;0.88;;;;;;;;;;5030929;28;20029;-59
2023/03/15 04:42:45;;;;;;;5.00;1.48;;;;;;;;;;5030967;28;20030;-60
2023/03/15 04:45:11;;;;;;;1.58;0.77;;;;;;;;;;5031508;28;20025;-58
2023/03/15 04:47:37;;;;;;;3.58;0.85;;;;;;;;;;5030853;28;20060;-60
2023/03/15 04:50:03;;;;;;;2.70;1.00;;;;;;;;;;5031030;28;20057;-59
2023/03/15 04:52:29;;;;;;;2.75;0.90;;;;;;;;;;5031180;28;20423;-61
2023/03/15 04:54:55;;;;;;;2.53;1.10;;;;;;;;;;5030889;28;20079;-59
2023/03/15 04:57:21;;;;;;;2.00;0.93;;;;;;;;;;5030506;28;20026;-59
2023/03/15 04:59:47;;;;;;;1.60;0.90;;;;;;;;;;5031016;28;20128;-59
2023/03/15 05:02:13;;;;;;;2.85;0.98;;;;;;;;;;5031220;28;20076;-57
2023/03/15 05:04:39;;;;;;;2.88;0.93;;;;;;;;;;5030999;28;20036;-57
2023/03/15 05:07:05;;;;;;;3.45;1.33;;;;;;;;;;5030698;28;20025;-61
2023/03/15 05:09:36;;;;;;;2.35;0.95;;;;;;;;;;5030438;28;20440;-61
2023/03/15 05:12:03;;;;;;;2.83;1.00;;;;;;;;;;5030736;28;20420;-61
2023/03/15 05:14:29;;;;;;;2.53;0.90;;;;;;;;;;5030223;28;20045;-60
2023/03/15 05:16:57;;;;;;;2.65;1.08;;;;;;;;;;5030803;28;20026;-59
2023/03/15 05:19:23;;;;;;;2.88;1.23;;;;;;;;;;5030664;28;20064;-59
2023/03/15 05:21:49;;;;;;;2.13;0.75;;;;;;;;;;5029385;28;20137;-59
2023/03/15 05:24:15;;;;;;;3.75;0.93;;;;;;;;;;5030629;28;20389;-61
2023/03/15 05:26:45;;;;;;;2.63;1.15;;;;;;;;;;5031057;28;20022;-60
2023/03/15 05:29:11;;;;;;;2.45;1.00;;;;;;;;;;5030640;28;20025;-61
2023/03/15 05:31:38;;;;;;;3.13;1.27;;;;;;;;;;5030555;28;20402;-61
2023/03/15 05:34:04;;;;;;;3.78;1.00;;;;;;;;;;5030652;28;20153;-61
2023/03/15 05:36:30;;;;;;;3.22;0.93;;;;;;;;;;5030494;28;20022;-58
2023/03/15 05:38:57;;;;;;;2.30;1.20;;;;;;;;;;5030666;28;20041;-60
2023/03/15 05:41:23;;;;;;;2.75;0.93;;;;;;;;;;5030434;28;20057;-61
2023/03/15 05:43:49;;;;;;;3.35;1.15;;;;;;;;;;5030319;28;20036;-61
2023/03/15 05:46:15;;;;;;;2.25;0.80;;;;;;;;;;5030406;28;20440;-61
2023/03/15 05:48:42;;;;;;;3.97;1.15;;;;;;;;;;5030941;28;20022;-61
2023/03/15 05:51:08;;;;;;;2.72;1.20;;;;;;;;;;5030531;28;20053;-61
2023/03/15 05:53:34;;;;;;;1.80;0.77;;;;;;;;;;5030083;28;20044;-61
2023/03/15 05:56:00;;;;;;;2.42;0.82;;;;;;;;;;5030507;28;20108;-59
2023/03/15 05:58:26;;;;;;;3.85;1.00;;;;;;;;;;5029901;28;20029;-60
2023/03/15 06:00:52;;;;;;;3.20;1.00;;;;;;;;;;5031695;28;20033;-61
2023/03/15 06:03:18;;;;;;;2.65;1.10;;;;;;;;;;5033905;28;20022;-61
2023/03/15 06:05:44;;;;;;;2.42;1.00;;;;;;;;;;5034005;28;20037;-58
2023/03/15 06:08:10;;;;;;;3.42;0.85;;;;;;;;;;5034098;28;20470;-61
2023/03/15 06:10:36;;;;;;;2.30;0.90;;;;;;;;;;5033776;28;20168;-61
2023/03/15 06:13:02;;;;;;;4.15;1.35;;;;;;;;;;5033497;28;20026;-61
2023/03/15 06:15:28;;;;;;;3.17;0.93;;;;;;;;;;5033612;28;20364;-61
2023/03/15 06:17:54;;;;;;;4.18;1.13;;;;;;;;;;5034054;28;20497;-61
2023/03/15 06:20:20;;;;;;;3.00;0.93;;;;;;;;;;5033788;28;20061;-61
2023/03/15 06:22:46;;;;;;;5.05;1.20;;;;;;;;;;5033819;28;20048;-59
2023/03/15 06:25:12;;;;;;;3.40;1.02;;;;;;;;;;5034115;28;20025;-59
2023/03/15 06:27:38;;;;;;;2.72;0.90;;;;;;;;;;5033123;28;20089;-59
2023/03/15 06:30:04;;;;;;;3.22;1.17;;;;;;;;;;5033696;28;20032;-60
2023/03/15 06:32:30;;;;;;;4.22;1.48;;;;;;;;;;5032934;28;20029;-59
2023/03/15 06:34:56;;;;;;;2.30;0.70;;;;;;;;;;5033475;28;20036;-59
2023/03/15 06:37:22;;;;;;;2.83;1.20;;;;;;;;;;5031288;28;20104;-58
2023/03/15 06:39:50;;;;;;;2.80;0.90;;;;;;;;;;5033158;28;20543;-57
2023/03/15 06:42:16;;;;;;;1.80;0.82;;;;;;;;;;5032905;28;20033;-59
2023/03/15 06:44:42;;;;;;;1.85;0.75;;;;;;;;;;5033770;28;20026;-60
2023/03/15 06:47:09;;;;;;;3.38;0.88;;;;;;;;;;5033420;28;20056;-59
2023/03/15 06:49:35;;;;;;;2.95;1.17;;;;;;;;;;5033207;28;20026;-61
2023/03/15 06:52:01;;;;;;;2.42;1.00;;;;;;;;;;5032139;28;20034;-61
2023/03/15 06:54:27;;;;;;;3.40;0.82;;;;;;;;;;5032611;28;20490;-56
2023/03/15 06:56:53;;;;;;;5.15;0.98;;;;;;;;;;5032623;28;20090;-59
2023/03/15 06:59:19;;;;;;;3.30;1.25;;;;;;;;;;5033021;28;20037;-58
2023/03/15 07:01:45;;;;;;;2.85;0.93;;;;;;;;;;5033211;28;20141;-57
2023/03/15 07:04:11;;;;;;;4.50;1.15;;;;;;;;;;5032699;28;20083;-59
2023/03/15 07:06:37;;;;;;;3.70;1.00;;;;;;;;;;5033010;28;20025;-59
2023/03/15 07:09:04;;;;;;;5.30;1.33;;;;;;;;;;5032392;28;20029;-57
2023/03/15 07:11:30;;;;;;;5.05;1.45;;;;;;;;;;5032120;28;20032;-58
2023/03/15 07:13:57;;;;;;;5.00;1.00;;;;;;;;;;5031895;28;20116;-59
2023/03/15 07:16:23;;;;;;;5.55;0.90;;;;;;;;;;5032433;28;20393;-61
2023/03/15 07:18:49;;;;;;;4.28;0.95;;;;;;;;;;5032644;28;20033;-59
2023/03/15 07:21:15;;;;;;;3.00;1.52;;;;;;;;;;5032413;28;20398;-60
2023/03/15 07:23:41;;;;;;;6.35;1.70;;;;;;;;;;5032963;28;20033;-60
2023/03/15 07:26:07;;;;;;;6.00;1.50;;;;;;;;;;5032028;28;20029;-60
2023/03/15 07:28:33;;;;;;;3.95;1.50;;;;;;;;;;5031866;28;20382;-60
2023/03/15 07:31:01;;;;;;;6.10;1.73;;;;;;;;;;5031935;28;20064;-60
2023/03/15 07:33:27;;;;;;;5.05;1.90;;;;;;;;;;5031795;28;20466;-59
2023/03/15 07:35:53;;;;;;;3.47;1.70;;;;;;;;;;5031232;28;20091;-59
2023/03/15 07:38:20;;;;;;;4.68;1.55;;;;;;;;;;5031416;28;20029;-58
2023/03/15 07:40:46;;;;;;;5.85;1.75;;;;;;;;;;5031467;28;20508;-59
2023/03/15 07:43:12;;;;;;;4.32;1.80;;;;;;;;;;5032691;28;20062;-64
2023/03/15 07:45:38;;;;;;;7.57;1.80;;;;;;;;;;5032065;28;20029;-63
2023/03/15 07:48:04;;;;;;;8.70;1.55;;;;;;;;;;5031146;28;20033;-64
2023/03/15 07:50:31;;;;;;;3.25;1.67;;;;;;;;;;5030050;28;20106;-65
2023/03/15 07:52:57;;;;;;;10.50;2.30;;;;;;;;;;5028957;28;20475;-64
2023/03/15 07:55:24;;;;;;;6.38;2.40;;;;;;;;;;5030074;28;20040;-64
2023/03/15 07:57:50;;;;;;;5.32;1.80;;;;;;;;;;5030842;28;20548;-64
2023/03/15 08:00:17;;;;;;;7.03;1.67;;;;;;;;;;5030706;28;20072;-64
2023/03/15 08:02:43;;;;;;;5.55;1.73;;;;;;;;;;5030199;28;20481;-64
2023/03/15 08:05:10;;;;;;;5.85;1.70;;;;;;;;;;5032485;28;20160;-64
2023/03/15 08:07:36;;;;;;;4.88;1.48;;;;;;;;;;5034303;28;20043;-63
2023/03/15 08:10:05;;;;;;;8.85;2.15;;;;;;;;;;5027451;28;20434;-64
2023/03/15 08:12:32;;;;;;;7.53;1.95;;;;;;;;;;5034201;28;20127;-65
2023/03/15 08:14:58;;;;;;;5.10;1.85;;;;;;;;;;5018035;28;20503;-65
2023/03/15 08:17:24;;;;;;;4.90;1.85;;;;;;;;;;5021598;28;20106;-61
2023/03/15 08:19:50;;;;;;;5.32;1.70;;;;;;;;;;5017694;28;20025;-64
2023/03/15 08:22:16;;;;;;;3.88;1.20;;;;;;;;;;5017632;28;20096;-61
2023/03/15 08:24:42;;;;;;;3.72;1.50;;;;;;;;;;5018108;28;20034;-63
2023/03/15 08:27:08;;;;;;;7.32;1.83;;;;;;;;;;5018200;28;20504;-60
2023/03/15 08:29:34;;;;;;;4.40;1.58;;;;;;;;;;5009682;28;20574;-61
2023/03/15 08:32:00;;;;;;;7.18;1.40;;;;;;;;;;5011099;28;20098;-62
2023/03/15 08:34:26;;;;;;;5.22;1.90;;;;;;;;;;5011453;28;20524;-60
2023/03/15 08:36:52;;;;;;;5.10;1.52;;;;;;;;;;5011567;28;20100;-61
2023/03/15 08:39:18;;;;;;;4.63;1.70;;;;;;;;;;5011282;28;20032;-61
2023/03/15 08:41:46;;;;;;;6.80;1.52;;;;;;;;;;5011636;28;20402;-61
2023/03/15 08:44:12;;;;;;;5.18;2.08;;;;;;;;;;5011903;28;20076;-65
2023/03/15 08:46:38;;;;;;;3.67;1.42;;;;;;;;;;5011184;28;20390;-60
2023/03/15 08:49:04;;;;;;;4.47;1.67;;;;;;;;;;5011495;28;20030;-61
2023/03/15 08:51:30;;;;;;;3.38;1.20;;;;;;;;;;5011011;28;20118;-61
2023/03/15 08:53:56;;;;;;;3.47;1.20;;;;;;;;;;5011450;28;20450;-60
2023/03/15 08:56:22;;;;;;;3.05;1.35;;;;;;;;;;5011252;28;20501;-60
2023/03/15 08:58:49;;;;;;;4.25;1.52;;;;;;;;;;5011334;28;20033;-60
2023/03/15 09:01:15;;;;;;;4.45;1.50;;;;;;;;;;5011004;28;20037;-61
2023/03/15 09:03:41;;;;;;;3.50;1.27;;;;;;;;;;5011586;28;20493;-60
2023/03/15 09:06:08;;;;;;;4.07;1.20;;;;;;;;;;5011452;28;20022;-61
2023/03/15 09:08:34;;;;;;;2.65;1.25;;;;;;;;;;5011019;28;20401;-63
2023/03/15 09:11:00;;;;;;;4.60;1.80;;;;;;;;;;5011281;28;20037;-60
2023/03/15 09:13:27;;;;;;;3.33;1.10;;;;;;;;;;5011048;28;20026;-62
2023/03/15 09:15:53;;;;;;;4.43;1.23;;;;;;;;;;5011278;28;20041;-65
2023/03/15 09:18:20;;;;;;;3.60;1.40;;;;;;;;;;5010911;28;20026;-63
2023/03/15 09:20:46;;;;;;;3.63;1.70;;;;;;;;;;5011342;28;20036;-62
2023/03/15 09:23:12;;;;;;;5.63;1.52;;;;;;;;;;5011440;28;20113;-60
2023/03/15 09:25:38;;;;;;;3.13;1.00;;;;;;;;;;5011004;28;20089;-62
2023/03/15 09:28:06;;;;;;;3.70;1.30;;;;;;;;;;5011198;28;20033;-59
2023/03/15 09:30:32;;;;;;;3.85;1.13;;;;;;;;;;5011238;28;20379;-60
2023/03/15 09:32:59;;;;;;;3.80;1.50;;;;;;;;;;5011070;28;20033;-59
2023/03/15 09:35:25;;;;;;;2.15;0.98;;;;;;;;;;5011430;28;20040;-62
2023/03/15 09:37:51;;;;;;;4.18;1.60;;;;;;;;;;5014980;28;20482;-62
2023/03/15 09:40:17;;;;;;;3.55;1.15;;;;;;;;;;5014641;28;20556;-61
2023/03/15 09:42:43;;;;;;;6.13;1.67;;;;;;;;;;5022310;28;20116;-59
2023/03/15 09:45:27;;;;;;;2.85;1.02;;;;;;;;;;5033302;28;20497;-60
2023/03/15 09:47:59;;;;;;;2.45;1.10;;;;;;;;;;5034329;28;20447;-62
2023/03/15 09:50:29;;;;;;;3.22;1.00;;;;;;;;;;5034248;28;20028;-62
2023/03/15 09:53:02;;;;;;;3.60;1.27;;;;;;;;;;5034407;28;20115;-59
2023/03/15 09:55:28;;;;;;;3.00;1.10;;;;;;;;;;5034088;28;20071;-60
2023/03/15 09:57:59;;;;;;;2.63;1.00;;;;;;;;;;5034164;28;20025;-60
2023/03/15 10:00:33;;;;;;;3.83;1.25;;;;;;;;;;5034161;28;20025;-63
2023/03/15 10:03:05;;;;;;;3.43;1.10;;;;;;;;;;5034227;28;20075;-65
2023/03/15 10:05:34;;;;;;;2.30;1.20;;;;;;;;;;5033899;28;20252;-62
2023/03/15 10:08:00;;;;;;;2.92;1.45;;;;;;;;;;5034107;28;20456;-63
2023/03/15 10:10:39;;;;;;;2.58;1.08;;;;;;;;;;5033798;28;20112;-60
2023/03/15 10:13:17;;;;;;;2.40;1.13;;;;;;;;;;5034088;28;20033;-59
2023/03/15 10:15:59;;;;;;;3.72;1.02;;;;;;;;;;5034228;28;20034;-60
2023/03/15 10:18:28;;;;;;;1.45;0.80;;;;;;;;;;5033714;28;20049;-60
2023/03/15 10:21:00;;;;;;;2.90;0.90;;;;;;;;;;5033754;28;20025;-62
2023/03/15 10:23:32;;;;;;;2.30;1.15;;;;;;;;;;5033656;28;20026;-61
2023/03/15 10:25:58;;;;;;;2.85;0.90;;;;;;;;;;5033854;28;20390;-62
2023/03/15 10:28:28;;;;;;;2.58;1.13;;;;;;;;;;5033494;28;20021;-60
2023/03/15 10:30:57;;;;;;;2.60;0.88;;;;;;;;;;5033602;28;20064;-61
2023/03/15 10:33:23;;;;;;;4.10;1.20;;;;;;;;;;5033373;28;20096;-61
2023/03/15 10:35:49;;;;;;;2.97;1.23;;;;;;;;;;5033679;28;20105;-60
2023/03/15 10:38:16;;;;;;;2.90;1.13;;;;;;;;;;5033363;28;20044;-62
2023/03/15 10:40:44;;;;;;;2.53;0.80;;;;;;;;;;5033743;28;20032;-59
2023/03/15 10:43:23;;;;;;;2.35;0.82;;;;;;;;;;5033718;28;20025;-59
2023/03/15 10:46:06;;;;;;;2.15;0.98;;;;;;;;;;5033318;28;20542;-60
2023/03/15 10:48:34;;;;;;;2.83;1.10;;;;;;;;;;5033138;28;20087;-59
2023/03/15 10:51:15;;;;;;;2.95;1.00;;;;;;;;;;5033153;28;20486;-59
2023/03/15 10:53:47;;;;;;;2.53;1.00;;;;;;;;;;5033306;28;20555;-59
2023/03/15 10:56:19;;;;;;;2.63;1.08;;;;;;;;;;5033462;28;20030;-61
2023/03/15 10:58:46;;;;;;;4.07;0.90;;;;;;;;;;5033988;28;20025;-60
2023/03/15 11:01:23;;;;;;;3.03;1.10;;;;;;;;;;5033397;28;20037;-60
2023/03/15 11:04:12;;;;;;;2.50;0.90;;;;;;;;;;5033185;28;20026;-60
2023/03/15 11:06:49;;;;;;;3.92;1.58;;;;;;;;;;5032176;28;20080;-60
2023/03/15 11:09:22;;;;;;;2.65;1.00;;;;;;;;;;5032638;28;20152;-59
2023/03/15 11:12:08;;;;;;;2.90;1.20;;;;;;;;;;5033083;28;20425;-60
2023/03/15 11:14:40;;;;;;;2.83;0.90;;;;;;;;;;5031867;28;20056;-60
2023/03/15 11:17:08;;;;;;;2.08;1.10;;;;;;;;;;5029203;28;20025;-62
2023/03/15 11:19:38;;;;;;;3.20;1.00;;;;;;;;;;5030858;28;20038;-61
2023/03/15 11:22:04;;;;;;;1.10;0.70;;;;;;;;;;5028969;28;20017;-60
2023/03/15 11:24:31;;;;;;;2.03;0.73;;;;;;;;;;5030693;28;20036;-59
2023/03/15 11:27:00;;;;;;;2.05;0.80;;;;;;;;;;5030974;28;20020;-59
2023/03/15 11:29:35;;;;;;;1.63;1.02;;;;;;;;;;5031687;28;20429;-59
2023/03/15 11:32:07;;;;;;;2.47;0.90;;;;;;;;;;5032002;28;20037;-59
2023/03/15 11:34:45;;;;;;;1.73;0.73;;;;;;;;;;5031113;28;20405;-59
2023/03/15 11:37:14;;;;;;;2.22;1.00;;;;;;;;;;5030353;28;20073;-59
2023/03/15 11:39:45;;;;;;;3.70;0.98;;;;;;;;;;5031112;28;20037;-59
2023/03/15 11:42:14;;;;;;;1.90;1.00;;;;;;;;;;5031691;28;20035;-59
2023/03/15 11:44:43;;;;;;;2.17;1.05;;;;;;;;;;5029622;28;20100;-59
2023/03/15 11:47:14;;;;;;;2.10;0.80;;;;;;;;;;5031716;28;20017;-59
2023/03/15 11:49:45;;;;;;;2.47;1.10;;;;;;;;;;5029507;28;20025;-59
2023/03/15 11:52:11;;;;;;;2.17;0.90;;;;;;;;;;5031617;28;20497;-60
2023/03/15 11:54:37;;;;;;;2.10;1.05;;;;;;;;;;5031676;28;20038;-60
2023/03/15 11:57:26;;;;;;;3.55;1.30;;;;;;;;;;5032001;28;20032;-60
2023/03/15 11:59:52;;;;;;;2.13;0.90;;;;;;;;;;5031791;28;20478;-60
2023/03/15 12:02:34;;;;;;;2.67;0.88;;;;;;;;;;5031773;28;20482;-60
2023/03/15 12:05:05;;;;;;;2.10;0.93;;;;;;;;;;5031968;28;20097;-62
2023/03/15 12:07:35;;;;;;;2.42;0.93;;;;;;;;;;5031623;28;20029;-65
2023/03/15 12:10:04;;;;;;;1.40;0.88;;;;;;;;;;5031633;28;20030;-62
2023/03/15 12:12:30;;;;;;;2.63;1.05;;;;;;;;;;5031768;28;20390;-60
2023/03/15 12:15:14;;;;;;;1.70;0.82;;;;;;;;;;5031611;28;20046;-61
2023/03/15 12:17:50;;;;;;;1.52;0.80;;;;;;;;;;5031028;28;20100;-62
2023/03/15 12:20:18;;;;;;;3.15;0.80;;;;;;;;;;5028273;28;20068;-61
2023/03/15 12:22:50;;;;;;;1.90;0.90;;;;;;;;;;5029717;28;20454;-60
2023/03/15 12:25:19;;;;;;;2.30;0.93;;;;;;;;;;5029812;28;20033;-60
2023/03/15 12:27:47;;;;;;;2.13;0.90;;;;;;;;;;5029997;28;20405;-62
2023/03/15 12:30:19;;;;;;;2.45;1.30;;;;;;;;;;5029897;28;20096;-59
2023/03/15 12:32:49;;;;;;;2.35;1.17;;;;;;;;;;5029849;28;20021;-61
2023/03/15 12:35:19;;;;;;;2.10;1.02;;;;;;;;;;5029620;28;20033;-59
2023/03/15 12:37:46;;;;;;;1.58;0.95;;;;;;;;;;5029846;28;20043;-60
2023/03/15 12:40:15;;;;;;;1.35;0.80;;;;;;;;;;5029754;28;20108;-59
2023/03/15 12:42:41;;;;;;;3.53;0.90;;;;;;;;;;5029828;28;20025;-61
2023/03/15 12:45:16;;;;;;;3.90;1.20;;;;;;;;;;5030098;28;20033;-59
2023/03/15 12:47:46;;;;;;;2.00;1.10;;;;;;;;;;5031523;28;20112;-61
2023/03/15 12:50:31;;;;;;;2.13;1.00;;;;;;;;;;5031369;28;20033;-63
2023/03/15 12:52:59;;;;;;;3.03;1.47;;;;;;;;;;5030982;28;20025;-59
2023/03/15 12:55:28;;;;;;;2.50;1.08;;;;;;;;;;5030773;28;20183;-60
2023/03/15 12:57:56;;;;;;;2.42;1.33;;;;;;;;;;5031185;28;20021;-61
2023/03/15 13:00:24;;;;;;;1.40;1.00;;;;;;;;;;5030948;28;20033;-59
2023/03/15 13:02:53;;;;;;;1.77;0.93;;;;;;;;;;5031204;28;20022;-61
2023/03/15 13:05:22;;;;;;;2.78;0.98;;;;;;;;;;5030979;28;20124;-60
2023/03/15 13:08:03;;;;;;;2.00;0.93;;;;;;;;;;5030981;28;20109;-61
2023/03/15 13:10:32;;;;;;;2.67;1.08;;;;;;;;;;5031686;28;20044;-60
2023/03/15 13:13:17;;;;;;;2.53;1.20;;;;;;;;;;5035156;28;20037;-59
2023/03/15 13:15:53;;;;;;;3.20;0.82;;;;;;;;;;5035498;28;20088;-59
2023/03/15 13:18:21;;;;;;;1.75;0.77;;;;;;;;;;5035003;28;20033;-59
2023/03/15 13:20:47;;;;;;;2.63;1.05;;;;;;;;;;5035082;28;20433;-60
2023/03/15 13:23:16;;;;;;;2.65;1.20;;;;;;;;;;5035072;28;20029;-60
2023/03/15 13:25:42;;;;;;;2.40;1.23;;;;;;;;;;5034005;28;20116;-61
2023/03/15 13:28:43;;;;;;;2.53;1.00;;;;;;;;;;5034808;28;20101;-60
2023/03/15 13:31:12;;;;;;;1.90;0.80;;;;;;;;;;5013392;28;20164;-59
2023/03/15 13:33:38;;;;;;;3.13;1.35;;;;;;;;;;5029941;28;20041;-60
2023/03/15 13:36:05;;;;;;;1.65;1.08;;;;;;;;;;5034451;28;20114;-60
2023/03/15 13:38:33;;;;;;;2.08;1.10;;;;;;;;;;5034409;28;20025;-62
2023/03/15 13:41:00;;;;;;;2.55;1.10;;;;;;;;;;5034495;28;20029;-61
2023/03/15 13:43:35;;;;;;;3.00;1.17;;;;;;;;;;5034552;28;20110;-63
2023/03/15 13:46:01;;;;;;;1.73;1.10;;;;;;;;;;5034549;28;20022;-61
2023/03/15 13:48:28;;;;;;;2.33;1.15;;;;;;;;;;5034365;28;20108;-60
2023/03/15 13:50:55;;;;;;;2.95;1.40;;;;;;;;;;5034592;28;20022;-61
2023/03/15 13:53:24;;;;;;;2.40;1.00;;;;;;;;;;5034154;28;20029;-61
2023/03/15 13:55:51;;;;;;;3.30;1.20;;;;;;;;;;5034293;28;20498;-61
2023/03/15 13:58:18;;;;;;;1.55;0.80;;;;;;;;;;5034215;28;20033;-61
2023/03/15 14:00:46;;;;;;;2.35;1.20;;;;;;;;;;5034626;28;20097;-60
2023/03/15 14:03:13;;;;;;;2.03;1.10;;;;;;;;;;5034577;28;20076;-60
2023/03/15 14:05:47;;;;;;;2.45;1.10;;;;;;;;;;5034651;28;20363;-61
2023/03/15 14:08:16;;;;;;;2.17;1.10;;;;;;;;;;5034462;28;20056;-60
2023/03/15 14:10:42;;;;;;;1.77;0.90;;;;;;;;;;5034528;28;20084;-61
2023/03/15 14:13:16;;;;;;;2.03;1.02;;;;;;;;;;5034059;28;20413;-61
2023/03/15 14:15:43;;;;;;;2.20;0.95;;;;;;;;;;5034174;28;20044;-62
2023/03/15 14:18:09;;;;;;;2.20;0.98;;;;;;;;;;5034081;28;20025;-62
2023/03/15 14:20:37;;;;;;;3.17;1.17;;;;;;;;;;5033604;28;20120;-60
2023/03/15 14:23:04;;;;;;;1.38;1.10;;;;;;;;;;5033566;28;20028;-63
2023/03/15 14:25:33;;;;;;;1.70;1.00;;;;;;;;;;5033638;28;20044;-61
2023/03/15 14:28:01;;;;;;;1.67;0.85;;;;;;;;;;5033872;28;20021;-62
2023/03/15 14:30:28;;;;;;;2.38;1.25;;;;;;;;;;5033462;28;20164;-61
2023/03/15 14:32:56;;;;;;;2.20;0.93;;;;;;;;;;5033788;28;20029;-61
2023/03/15 14:35:28;;;;;;;1.88;0.77;;;;;;;;;;5033316;28;20037;-62
2023/03/15 14:38:13;;;;;;;1.25;0.80;;;;;;;;;;5033665;28;20041;-60
2023/03/15 14:40:39;;;;;;;1.40;1.00;;;;;;;;;;5033423;28;20025;-61
2023/03/15 14:43:06;;;;;;;3.65;1.10;;;;;;;;;;5033016;28;20152;-60
2023/03/15 14:45:33;;;;;;;2.35;1.13;;;;;;;;;;5033299;28;20030;-60
2023/03/15 14:48:03;;;;;;;5.30;1.23;;;;;;;;;;5033597;28;20037;-61